Time,TemperatureF,DewpointF,PressureIn,WindDirection,WindDirectionDegrees,WindSpeedMPH,WindSpeedGustMPH,Humidity,HourlyPrecipIn,Conditions,Clouds,dailyrainin,SoftwareType,DateUTC
2013-08-19 00:12:00,63.0,61.0,30.02,South,180,1.0,3.0,92,0.00,,,0.48,,2013-08-19 04:12:00,
2013-08-19 00:23:00,63.0,61.0,30.03,SSW,208,2.0,3.0,92,0.00,,,0.48,,2013-08-19 04:23:00,
2013-08-19 00:42:00,63.0,61.0,30.03,South,184,1.0,3.0,92,0.00,,,0.45,,2013-08-19 04:42:00,
2013-08-19 00:53:00,63.0,61.0,30.03,South,184,1.0,3.0,92,0.00,,,0.45,,2013-08-19 04:53:00,
2013-08-19 01:11:00,63.0,61.0,30.02,South,187,1.0,2.0,93,0.00,,,0.45,,2013-08-19 05:11:00,
2013-08-19 01:22:00,63.0,61.0,30.02,South,187,1.0,2.0,93,0.00,,,0.45,,2013-08-19 05:22:00,
2013-08-19 01:42:00,63.0,61.0,30.02,SSW,210,2.0,3.0,93,0.00,,,0.41,,2013-08-19 05:42:00,
2013-08-19 01:52:00,63.0,61.0,30.01,SSW,203,2.0,2.0,93,0.00,,,0.41,,2013-08-19 05:52:00,
2013-08-19 02:11:00,63.0,61.0,30.00,SSW,203,2.0,3.0,93,0.00,,,0.41,,2013-08-19 06:11:00,
2013-08-19 02:21:00,63.0,61.0,30.00,SSW,203,2.0,3.0,93,0.00,,,0.41,,2013-08-19 06:21:00,
2013-08-19 02:42:00,63.0,61.0,30.00,SE,135,2.0,3.0,93,0.00,,,0.35,,2013-08-19 06:42:00,
2013-08-19 02:52:00,63.0,61.0,30.00,SSE,166,2.0,4.0,93,0.00,,,0.35,,2013-08-19 06:52:00,
2013-08-19 03:01:00,63.0,61.0,30.00,SSE,166,2.0,4.0,93,0.00,,,0.35,,2013-08-19 07:01:00,
2013-08-19 03:12:00,63.0,61.0,30.00,SSE,166,2.0,4.0,93,0.00,,,0.35,,2013-08-19 07:12:00,
2013-08-19 03:21:00,63.0,61.0,29.98,SSW,211,2.0,3.0,93,0.00,,,0.30,,2013-08-19 07:21:00,
2013-08-19 03:31:00,63.0,61.0,29.98,SSW,211,2.0,3.0,93,0.00,,,0.30,,2013-08-19 07:31:00,
2013-08-19 03:42:00,63.0,61.0,29.98,SSW,211,2.0,3.0,93,0.00,,,0.30,,2013-08-19 07:42:00,
2013-08-19 03:52:00,63.0,61.0,29.98,SSW,211,2.0,3.0,93,0.00,,,0.30,,2013-08-19 07:52:00,
2013-08-19 04:11:00,63.0,61.0,29.98,West,261,2.0,4.0,94,0.00,,,0.30,,2013-08-19 08:11:00,
2013-08-19 04:22:00,63.0,61.0,29.98,West,270,1.0,3.0,94,0.00,,,0.26,,2013-08-19 08:22:00,
2013-08-19 04:42:00,63.0,61.0,29.98,WNW,282,2.0,2.0,94,0.00,,,0.26,,2013-08-19 08:42:00,
2013-08-19 04:52:00,63.0,61.0,29.98,WNW,282,2.0,2.0,94,0.00,,,0.26,,2013-08-19 08:52:00,
2013-08-19 05:11:00,63.0,61.0,29.97,SSE,155,2.0,3.0,94,0.00,,,0.26,,2013-08-19 09:11:00,
2013-08-19 05:22:00,63.0,61.0,29.98,NNW,338,1.0,1.0,94,0.00,,,0.23,,2013-08-19 09:22:00,
2013-08-19 05:33:00,63.0,61.0,29.98,NNW,338,1.0,1.0,94,0.00,,,0.23,,2013-08-19 09:33:00,
2013-08-19 05:43:00,63.0,61.0,29.98,NNW,338,1.0,1.0,94,0.00,,,0.23,,2013-08-19 09:43:00,
2013-08-19 05:53:00,63.0,61.0,29.97,SSE,158,1.0,2.0,94,0.00,,,0.23,,2013-08-19 09:53:00,
2013-08-19 06:03:00,63.0,61.0,29.97,SSE,158,1.0,2.0,94,0.00,,,0.23,,2013-08-19 10:03:00,
2013-08-19 06:23:00,63.0,61.0,29.98,NW,320,1.0,5.0,94,0.01,,,0.20,,2013-08-19 10:23:00,
2013-08-19 06:43:00,63.0,61.0,29.98,NW,308,2.0,3.0,94,0.01,,,0.20,,2013-08-19 10:43:00,
2013-08-19 06:52:00,63.0,61.0,29.98,WNW,289,2.0,3.0,94,0.01,,,0.20,,2013-08-19 10:52:00,
2013-08-19 07:12:00,63.0,61.0,29.99,NW,315,2.0,3.0,94,0.01,,,0.20,,2013-08-19 11:12:00,
2013-08-19 07:22:00,63.0,61.0,29.99,West,261,3.0,4.0,94,0.00,,,0.20,,2013-08-19 11:22:00,
2013-08-19 07:33:00,63.0,61.0,29.99,West,261,3.0,4.0,94,0.00,,,0.20,,2013-08-19 11:33:00,
2013-08-19 07:45:00,63.0,61.0,29.99,West,261,3.0,4.0,94,0.00,,,0.20,,2013-08-19 11:45:00,
2013-08-19 07:52:00,64.0,62.0,29.99,SSW,212,2.0,3.0,94,0.01,,,0.12,,2013-08-19 11:52:00,
2013-08-19 08:11:00,64.0,62.0,29.99,SSW,209,2.0,5.0,94,0.01,,,0.12,,2013-08-19 12:11:00,
2013-08-19 08:21:00,64.0,62.0,29.99,SW,217,2.0,3.0,94,0.01,,,0.12,,2013-08-19 12:21:00,
2013-08-19 08:42:00,64.0,62.0,29.98,South,189,1.0,3.0,94,0.01,,,0.06,,2013-08-19 12:42:00,
2013-08-19 08:52:00,64.0,62.0,29.98,SW,225,2.0,2.0,94,0.00,,,0.06,,2013-08-19 12:52:00,
2013-08-19 09:13:00,65.0,63.0,29.98,South,180,0.0,3.0,94,0.00,,,0.06,,2013-08-19 13:13:00,
2013-08-19 09:22:00,65.0,63.0,29.98,SSE,166,1.0,2.0,93,0.00,,,0.04,,2013-08-19 13:22:00,
2013-08-19 09:32:00,65.0,63.0,29.98,SSE,166,1.0,2.0,93,0.00,,,0.04,,2013-08-19 13:32:00,
2013-08-19 09:42:00,65.0,63.0,29.98,SSE,166,1.0,2.0,93,0.00,,,0.04,,2013-08-19 13:42:00,
2013-08-19 09:52:00,66.0,64.0,29.97,WSW,237,3.0,5.0,92,0.00,,,0.04,,2013-08-19 13:52:00,
2013-08-19 10:02:00,66.0,64.0,29.97,WSW,237,3.0,5.0,92,0.00,,,0.04,,2013-08-19 14:02:00,
2013-08-19 10:11:00,66.0,64.0,29.97,WSW,237,3.0,5.0,92,0.00,,,0.04,,2013-08-19 14:11:00,
2013-08-19 10:22:00,66.0,63.0,29.97,SSW,203,1.0,2.0,91,0.00,,,0.04,,2013-08-19 14:22:00,
2013-08-19 10:32:00,66.0,63.0,29.97,SSW,203,1.0,2.0,91,0.00,,,0.04,,2013-08-19 14:32:00,
2013-08-19 10:42:00,66.0,63.0,29.97,SSW,203,1.0,2.0,91,0.00,,,0.04,,2013-08-19 14:42:00,
2013-08-19 10:52:00,67.0,64.0,29.97,WSW,238,2.0,3.0,90,0.00,,,0.04,,2013-08-19 14:52:00,
2013-08-19 11:11:00,68.0,65.0,29.96,SSE,163,2.0,3.0,89,0.00,,,0.04,,2013-08-19 15:11:00,
2013-08-19 11:23:00,69.0,66.0,29.98,WSW,240,2.0,3.0,89,0.00,,,0.04,,2013-08-19 15:23:00,
2013-08-19 11:44:00,69.0,65.0,29.98,SW,225,1.0,4.0,87,0.00,,,0.04,,2013-08-19 15:44:00,
2013-08-19 11:54:00,70.0,66.0,29.98,SSW,200,2.0,3.0,87,0.00,,,0.04,,2013-08-19 15:54:00,
2013-08-19 12:05:00,70.0,66.0,29.98,SSW,200,2.0,3.0,87,0.00,,,0.04,,2013-08-19 16:05:00,
2013-08-19 12:13:00,70.0,66.0,29.98,SSW,200,2.0,3.0,87,0.00,,,0.04,,2013-08-19 16:13:00,
2013-08-19 12:23:00,70.0,66.0,29.98,SSW,200,2.0,3.0,87,0.00,,,0.04,,2013-08-19 16:23:00,
2013-08-19 12:47:00,73.0,66.0,29.97,South,169,1.0,3.0,80,0.00,,,0.04,,2013-08-19 16:47:00,
2013-08-19 13:04:00,73.0,67.0,29.97,WSW,256,3.0,4.0,82,0.00,,,0.04,,2013-08-19 17:04:00,
2013-08-19 13:13:00,73.0,67.0,29.97,WSW,256,3.0,4.0,82,0.00,,,0.04,,2013-08-19 17:13:00,
2013-08-19 13:30:00,72.0,-99.9,29.97,West,264,2.0,5.0,84,0.00,,,0.04,,2013-08-19 17:30:00,
2013-08-19 13:49:00,72.0,66.0,29.96,South,175,2.0,5.0,81,0.00,,,0.02,,2013-08-19 17:49:00,
2013-08-19 13:57:00,72.0,66.0,29.96,South,175,2.0,5.0,81,0.00,,,0.02,,2013-08-19 17:57:00,
2013-08-19 14:19:00,74.0,68.0,29.96,SW,215,2.0,4.0,82,0.00,,,0.02,,2013-08-19 18:19:00,
2013-08-19 14:25:00,-999.0,-99.9,29.95,SSW,213,1.0,3.0,76,0.00,,,0.02,,2013-08-19 18:25:00,
2013-08-19 14:28:00,75.0,68.0,29.95,WSW,258,3.0,4.0,78,0.00,,,0.02,,2013-08-19 18:28:00,
2013-08-19 14:50:00,-999.0,-99.9,29.95,South,188,2.0,3.0,77,0.00,,,0.02,,2013-08-19 18:50:00,
2013-08-19 15:00:00,-999.0,-99.9,29.95,SSW,213,1.0,3.0,76,0.00,,,0.02,,2013-08-19 19:00:00,
2013-08-19 15:07:00,76.0,68.0,29.95,SSW,213,1.0,3.0,76,0.00,,,0.02,,2013-08-19 19:07:00,
2013-08-19 15:16:00,76.0,68.0,29.95,SSW,213,1.0,3.0,76,0.00,,,0.02,,2013-08-19 19:16:00,
2013-08-19 15:50:00,76.0,67.0,29.93,South,170,4.0,5.0,74,0.00,,,0.02,,2013-08-19 19:50:00,
2013-08-19 15:59:00,76.0,67.0,29.93,South,170,4.0,5.0,74,0.00,,,0.02,,2013-08-19 19:59:00,
2013-08-19 16:16:00,78.0,67.0,29.92,SW,225,3.0,5.0,70,0.00,,,0.02,,2013-08-19 20:16:00,
2013-08-19 16:20:00,78.0,69.0,29.92,South,188,2.0,4.0,74,0.00,,,0.02,,2013-08-19 20:20:00,
2013-08-19 16:30:00,78.0,-99.9,29.92,South,180,2.0,5.0,70,0.00,,,0.02,,2013-08-19 20:30:00,
2013-08-19 16:50:00,78.0,67.0,29.92,SW,225,3.0,5.0,70,0.00,,,0.02,,2013-08-19 20:50:00,
2013-08-19 17:00:00,-999.0,-99.9,29.92,SW,225,3.0,5.0,-999,-99.99,,,-99.99,,2013-08-19 21:00:00,
2013-08-19 17:08:00,78.0,67.0,29.92,SW,225,3.0,5.0,70,0.00,,,0.02,,2013-08-19 21:08:00,
2013-08-19 17:46:00,79.0,68.0,29.91,South,174,2.0,6.0,69,0.00,,,0.02,,2013-08-19 21:46:00,
2013-08-19 17:55:00,79.0,68.0,29.91,South,176,2.0,4.0,69,0.00,,,0.02,,2013-08-19 21:55:00,
2013-08-19 18:25:00,78.0,67.0,29.90,SSW,203,1.0,4.0,70,0.00,,,0.02,,2013-08-19 22:25:00,
2013-08-19 18:35:00,78.0,67.0,29.90,SSW,203,1.0,4.0,70,0.00,,,0.02,,2013-08-19 22:35:00,
2013-08-19 18:44:00,78.0,67.0,29.90,SSW,203,1.0,4.0,70,0.00,,,0.02,,2013-08-19 22:44:00,
2013-08-19 18:54:00,78.0,67.0,29.90,SSW,203,1.0,4.0,70,0.00,,,0.02,,2013-08-19 22:54:00,
2013-08-19 19:15:00,77.0,68.0,29.90,SW,216,2.0,2.0,73,0.00,,,0.02,,2013-08-19 23:15:00,
2013-08-19 19:25:00,77.0,68.0,29.90,SSW,208,1.0,1.0,74,0.00,,,0.02,,2013-08-19 23:25:00,
2013-08-19 19:48:00,76.0,68.0,29.90,SW,225,2.0,3.0,76,0.00,,,0.02,,2013-08-19 23:48:00,
2013-08-19 19:55:00,76.0,68.0,29.90,SW,225,2.0,3.0,76,0.00,,,0.02,,2013-08-19 23:55:00,
2013-08-19 20:11:00,75.0,67.0,29.90,SW,234,3.0,3.0,77,0.00,,,0.02,,2013-08-20 00:11:00,
2013-08-19 20:24:00,75.0,67.0,29.91,West,264,2.0,3.0,77,0.00,,,0.02,,2013-08-20 00:24:00,
2013-08-19 20:32:00,75.0,67.0,29.91,West,264,2.0,3.0,77,0.00,,,0.02,,2013-08-20 00:32:00,
2013-08-19 20:42:00,75.0,67.0,29.91,West,264,2.0,3.0,77,0.00,,,0.02,,2013-08-20 00:42:00,
2013-08-19 20:52:00,73.0,67.0,29.91,SW,225,2.0,3.0,81,0.00,,,0.02,,2013-08-20 00:52:00,
2013-08-19 21:11:00,72.0,66.0,29.92,WSW,248,2.0,3.0,82,0.00,,,0.02,,2013-08-20 01:11:00,
2013-08-19 21:22:00,72.0,67.0,29.92,West,264,3.0,3.0,85,0.00,,,0.02,,2013-08-20 01:22:00,
2013-08-19 21:42:00,71.0,67.0,29.93,WSW,241,3.0,4.0,86,0.00,,,0.02,,2013-08-20 01:42:00,
2013-08-19 21:52:00,71.0,67.0,29.94,SW,225,4.0,5.0,87,0.00,,,0.02,,2013-08-20 01:52:00,
2013-08-19 22:11:00,70.0,66.0,29.94,SW,225,4.0,5.0,88,0.00,,,0.02,,2013-08-20 02:11:00,
2013-08-19 22:21:00,69.0,66.0,29.95,West,261,3.0,4.0,89,0.00,,,0.02,,2013-08-20 02:21:00,
2013-08-19 22:42:00,70.0,66.0,29.95,WSW,239,3.0,4.0,88,0.00,,,0.02,,2013-08-20 02:42:00,
2013-08-19 22:52:00,69.0,66.0,29.95,WSW,248,1.0,2.0,89,0.00,,,0.02,,2013-08-20 02:52:00,
2013-08-19 23:11:00,69.0,65.0,29.95,West,270,2.0,3.0,88,0.00,,,0.02,,2013-08-20 03:11:00,
2013-08-19 23:22:00,69.0,65.0,29.95,West,270,2.0,3.0,88,0.00,,,0.02,,2013-08-20 03:22:00,
2013-08-19 23:43:00,69.0,65.0,29.95,West,277,1.0,1.0,88,0.00,,,0.02,,2013-08-20 03:43:00,
2013-08-19 23:54:00,69.0,66.0,29.96,South,171,1.0,2.0,89,0.00,,,0.02,,2013-08-20 03:54:00,